createdAt,value
2022-11-30T00:01:45.001Z,63.96
2022-11-30T00:04:32.542Z,63.88
2022-11-30T00:07:20.328Z,63.88
2022-11-30T00:10:09.077Z,63.84
2022-11-30T00:12:55.887Z,63.82
2022-11-30T00:15:44.661Z,63.75
2022-11-30T00:18:31.623Z,63.78
2022-11-30T00:21:19.095Z,63.73
2022-11-30T00:24:07.069Z,63.72
2022-11-30T00:26:54.349Z,63.61
2022-11-30T00:29:41.211Z,63.57
2022-11-30T00:32:29.856Z,63.57
2022-11-30T00:35:17.879Z,63.74
2022-11-30T00:38:05.226Z,63.82
2022-11-30T00:40:52.324Z,63.76
2022-11-30T00:43:39.951Z,63.67
2022-11-30T00:46:26.965Z,63.70
2022-11-30T00:49:15.732Z,63.74
2022-11-30T00:52:02.531Z,63.85
2022-11-30T00:54:49.893Z,63.92
2022-11-30T00:57:36.617Z,64.00
2022-11-30T01:00:24.222Z,64.07
2022-11-30T01:03:11.761Z,64.10
2022-11-30T01:06:04.104Z,64.06
2022-11-30T01:08:50.980Z,64.20
2022-11-30T01:11:38.118Z,64.55
2022-11-30T01:14:24.942Z,64.76
2022-11-30T01:17:12.430Z,64.85
2022-11-30T01:19:59.559Z,65.01
2022-11-30T01:22:48.191Z,65.06
2022-11-30T01:25:35.320Z,65.31
2022-11-30T01:28:22.560Z,65.29
2022-11-30T01:31:11.797Z,65.09
2022-11-30T01:34:05.072Z,65.12
2022-11-30T01:36:52.117Z,65.02
2022-11-30T01:39:40.822Z,64.82
2022-11-30T01:42:28.042Z,65.01
2022-11-30T01:45:15.914Z,65.04
2022-11-30T01:48:03.178Z,65.26
2022-11-30T01:50:50.242Z,65.37
2022-11-30T01:53:37.153Z,65.56
2022-11-30T01:56:26.600Z,65.63
2022-11-30T01:59:14.587Z,65.72
2022-11-30T02:02:02.071Z,65.54
2022-11-30T02:04:49.394Z,65.43
2022-11-30T02:07:36.491Z,65.36
2022-11-30T02:10:27.913Z,65.31
2022-11-30T02:13:32.452Z,65.40
2022-11-30T02:16:26.365Z,65.47
2022-11-30T02:19:50.732Z,65.13
2022-11-30T02:23:01.915Z,65.55
2022-11-30T02:25:58.005Z,65.92
2022-11-30T02:29:03.361Z,65.68
2022-11-30T02:31:55.693Z,65.85
2022-11-30T02:34:47.341Z,65.64
2022-11-30T02:37:36.364Z,65.42
2022-11-30T02:40:23.880Z,65.31
2022-11-30T02:43:10.499Z,65.52
2022-11-30T02:46:08.155Z,65.61
2022-11-30T02:49:06.182Z,65.71
2022-11-30T02:51:56.499Z,65.87
2022-11-30T02:54:43.358Z,65.79
2022-11-30T02:57:30.842Z,65.74
2022-11-30T03:00:18.808Z,65.79
2022-11-30T03:03:07.304Z,65.68
2022-11-30T03:05:54.278Z,65.69
2022-11-30T03:08:41.578Z,65.80
2022-11-30T03:11:28.588Z,65.90
2022-11-30T03:14:15.615Z,65.73
2022-11-30T03:17:02.405Z,65.83
2022-11-30T03:19:50.965Z,65.77
2022-11-30T03:22:37.869Z,65.70
2022-11-30T03:25:24.706Z,65.48
2022-11-30T03:28:11.543Z,65.71
2022-11-30T03:30:58.874Z,65.66
2022-11-30T03:33:45.765Z,65.64
2022-11-30T03:36:34.206Z,65.72
2022-11-30T03:39:21.033Z,65.54
2022-11-30T03:42:08.440Z,65.34
2022-11-30T03:44:55.376Z,65.09
2022-11-30T03:47:42.594Z,65.14
2022-11-30T03:50:29.593Z,65.06
2022-11-30T03:53:18.844Z,64.97
2022-11-30T03:56:07.902Z,64.74
2022-11-30T03:58:54.795Z,64.61
2022-11-30T04:01:41.960Z,64.52
2022-11-30T04:04:28.962Z,64.40
2022-11-30T04:07:15.713Z,64.31
2022-11-30T04:10:08.423Z,64.42
2022-11-30T04:12:55.527Z,64.59
2022-11-30T04:15:42.528Z,64.95
2022-11-30T04:18:31.470Z,64.98
2022-11-30T04:21:19.277Z,64.81
2022-11-30T04:24:06.984Z,64.62
2022-11-30T04:26:55.451Z,64.51
2022-11-30T04:29:42.328Z,64.24
2022-11-30T04:32:29.732Z,64.21
2022-11-30T04:35:16.950Z,64.15
2022-11-30T04:38:04.327Z,64.02
2022-11-30T04:40:51.235Z,64.01
2022-11-30T04:43:39.609Z,64.04
2022-11-30T04:46:26.517Z,63.97
2022-11-30T04:49:13.310Z,63.94
2022-11-30T04:51:59.939Z,63.95
2022-11-30T04:54:47.527Z,63.84
2022-11-30T04:57:34.583Z,63.85
2022-11-30T05:00:23.664Z,63.86
2022-11-30T05:03:10.537Z,63.92
2022-11-30T05:05:57.841Z,64.13
2022-11-30T05:08:45.170Z,64.17
2022-11-30T05:11:32.743Z,64.01
2022-11-30T05:14:19.436Z,63.86
2022-11-30T05:17:07.695Z,63.90
2022-11-30T05:19:54.504Z,64.10
2022-11-30T05:22:41.887Z,64.03
2022-11-30T05:25:28.629Z,64.22
2022-11-30T05:28:15.768Z,64.37
2022-11-30T05:31:04.843Z,64.64
2022-11-30T05:33:53.992Z,64.96
2022-11-30T05:36:40.795Z,64.98
2022-11-30T05:39:28.119Z,65.11
2022-11-30T05:42:15.051Z,65.27
2022-11-30T05:45:02.135Z,65.38
2022-11-30T05:47:50.316Z,65.58
2022-11-30T05:50:38.609Z,65.77
2022-11-30T05:53:25.392Z,66.07
2022-11-30T05:56:14.761Z,65.77
2022-11-30T05:59:01.242Z,65.80
2022-11-30T06:01:48.754Z,65.43
2022-11-30T06:04:36.516Z,65.31
2022-11-30T06:07:24.887Z,64.90
2022-11-30T06:10:13.487Z,64.83
2022-11-30T06:13:00.390Z,64.74
2022-11-30T06:15:47.921Z,64.55
2022-11-30T06:18:34.928Z,64.47
2022-11-30T06:21:24.706Z,64.35
2022-11-30T06:24:13.202Z,64.42
2022-11-30T06:27:00.578Z,64.46
2022-11-30T06:29:47.472Z,64.62
2022-11-30T06:32:34.925Z,64.58
2022-11-30T06:35:22.051Z,64.60
2022-11-30T06:38:09.390Z,64.81
2022-11-30T06:41:04.775Z,64.98
2022-11-30T06:43:51.904Z,65.19
2022-11-30T06:46:38.920Z,64.85
2022-11-30T06:49:26.580Z,64.95
2022-11-30T06:52:13.471Z,64.95
2022-11-30T06:55:00.799Z,65.21
2022-11-30T06:57:49.104Z,65.30
2022-11-30T07:00:37.734Z,65.22
2022-11-30T07:03:24.706Z,64.94
2022-11-30T07:06:13.716Z,64.79
2022-11-30T07:09:00.667Z,64.81
2022-11-30T07:11:47.367Z,65.10
2022-11-30T07:14:35.638Z,65.41
2022-11-30T07:17:22.772Z,65.41
2022-11-30T07:20:10.399Z,65.41
2022-11-30T07:22:58.104Z,65.29
2022-11-30T07:26:02.339Z,65.21
2022-11-30T07:28:54.684Z,65.11
2022-11-30T07:31:43.098Z,65.11
2022-11-30T07:34:30.385Z,65.30
2022-11-30T07:37:17.812Z,65.47
2022-11-30T07:40:05.671Z,65.47
2022-11-30T07:42:58.193Z,65.56
2022-11-30T07:45:52.667Z,65.70
2022-11-30T07:48:41.387Z,66.02
2022-11-30T07:51:28.198Z,66.02
2022-11-30T07:54:15.232Z,65.94
2022-11-30T07:57:02.530Z,66.23
2022-11-30T07:59:49.664Z,66.29
2022-11-30T08:02:37.286Z,66.28
2022-11-30T08:05:26.044Z,66.11
2022-11-30T08:08:12.837Z,66.17
2022-11-30T08:11:00.261Z,66.21
2022-11-30T08:13:47.269Z,66.01
2022-11-30T08:16:38.260Z,66.13
2022-11-30T08:19:24.789Z,66.13
2022-11-30T08:22:12.865Z,66.08
2022-11-30T08:24:59.655Z,66.08
2022-11-30T08:27:46.913Z,65.86
2022-11-30T08:30:33.866Z,65.74
2022-11-30T08:33:21.107Z,65.87
2022-11-30T08:36:09.675Z,65.57
2022-11-30T08:39:00.471Z,65.69
2022-11-30T08:41:47.163Z,65.35
2022-11-30T08:44:34.394Z,65.38
2022-11-30T08:47:21.467Z,65.35
2022-11-30T08:50:09.749Z,65.62
2022-11-30T08:52:59.444Z,65.40
2022-11-30T08:55:58.209Z,65.51
2022-11-30T08:58:45.516Z,65.26
2022-11-30T09:01:33.320Z,65.36
2022-11-30T09:04:20.319Z,65.18
2022-11-30T09:07:07.406Z,64.97
2022-11-30T09:09:54.216Z,65.13
2022-11-30T09:12:43.900Z,65.06
2022-11-30T09:15:31.063Z,64.87
2022-11-30T09:18:18.540Z,64.52
2022-11-30T09:21:08.462Z,64.40
2022-11-30T09:23:57.276Z,64.51
2022-11-30T09:26:44.250Z,64.44
2022-11-30T09:29:32.498Z,64.41
2022-11-30T09:32:19.286Z,64.25
2022-11-30T09:35:12.477Z,64.14
2022-11-30T09:37:59.702Z,64.09
2022-11-30T09:40:47.469Z,64.06
2022-11-30T09:43:45.716Z,63.73
2022-11-30T09:46:40.635Z,63.56
2022-11-30T09:49:31.351Z,63.77
2022-11-30T09:52:19.982Z,63.84
2022-11-30T09:55:10.778Z,63.57
2022-11-30T09:58:01.890Z,63.65
2022-11-30T10:00:49.096Z,63.52
2022-11-30T10:03:37.754Z,63.25
2022-11-30T10:06:32.859Z,63.04
2022-11-30T10:09:32.882Z,63.43
2022-11-30T10:12:27.783Z,63.28
2022-11-30T10:15:35.997Z,63.40
2022-11-30T10:18:30.256Z,63.26
2022-11-30T10:21:33.765Z,63.73
2022-11-30T10:24:33.513Z,63.58
2022-11-30T10:27:36.263Z,62.88
2022-11-30T10:30:34.549Z,63.15
2022-11-30T10:33:29.265Z,62.84
2022-11-30T10:36:27.783Z,62.81
2022-11-30T10:39:21.240Z,62.57
2022-11-30T10:42:13.911Z,62.78
2022-11-30T10:45:05.663Z,62.54
2022-11-30T10:48:01.880Z,62.35
2022-11-30T10:50:49.303Z,62.49
2022-11-30T10:53:37.952Z,62.52
2022-11-30T10:56:24.749Z,62.19
2022-11-30T10:59:17.620Z,62.42
2022-11-30T11:02:29.372Z,62.32
2022-11-30T11:05:20.217Z,62.26
2022-11-30T11:08:20.222Z,62.25
2022-11-30T11:11:28.159Z,62.21
2022-11-30T11:14:18.986Z,61.55
2022-11-30T11:17:07.977Z,61.83
2022-11-30T11:19:54.802Z,62.11
2022-11-30T11:22:44.885Z,61.96
2022-11-30T11:25:36.510Z,61.92
2022-11-30T11:28:25.515Z,61.75
2022-11-30T11:31:20.970Z,62.17
2022-11-30T11:34:24.755Z,61.64
2022-11-30T11:37:18.949Z,61.63
2022-11-30T11:40:16.093Z,61.85
2022-11-30T11:43:04.237Z,61.61
2022-11-30T11:45:55.213Z,62.08
2022-11-30T11:48:49.878Z,61.60
2022-11-30T11:51:39.793Z,61.43
2022-11-30T11:54:31.947Z,61.52
2022-11-30T11:57:22.237Z,61.09
2022-11-30T12:00:17.523Z,61.61
2022-11-30T12:03:15.332Z,61.10
2022-11-30T12:06:08.465Z,60.93
2022-11-30T12:08:59.666Z,61.30
2022-11-30T12:11:48.236Z,61.50
2022-11-30T12:14:35.644Z,61.44
2022-11-30T12:17:36.286Z,61.50
2022-11-30T12:20:33.201Z,61.47
2022-11-30T12:23:47.158Z,61.26
2022-11-30T12:26:41.794Z,61.08
2022-11-30T12:29:42.371Z,61.14
2022-11-30T12:32:41.918Z,60.88
2022-11-30T12:35:38.090Z,60.58
2022-11-30T12:38:37.829Z,61.05
2022-11-30T12:41:36.071Z,60.74
2022-11-30T12:44:41.629Z,60.94
2022-11-30T12:47:44.519Z,61.21
2022-11-30T12:50:44.730Z,61.15
2022-11-30T12:53:36.326Z,60.75
2022-11-30T12:56:34.197Z,60.54
2022-11-30T12:59:29.359Z,60.16
2022-11-30T13:02:41.797Z,60.49
2022-11-30T13:05:34.995Z,59.80
2022-11-30T13:08:28.704Z,60.07
2022-11-30T13:11:19.837Z,59.84
2022-11-30T13:14:14.694Z,60.02
2022-11-30T13:17:04.823Z,60.29
2022-11-30T13:19:59.881Z,60.09
2022-11-30T13:22:53.632Z,59.31
2022-11-30T13:29:08.814Z,59.96
2022-11-30T13:32:05.385Z,59.68
2022-11-30T13:34:52.815Z,59.69
2022-11-30T13:37:40.763Z,60.21
2022-11-30T13:40:27.539Z,59.85
2022-11-30T13:43:22.621Z,60.18
2022-11-30T13:46:16.742Z,60.09
2022-11-30T13:49:19.801Z,60.06
2022-11-30T13:52:22.758Z,59.90
2022-11-30T13:55:51.095Z,60.33
2022-11-30T13:59:18.219Z,59.93
2022-11-30T14:02:53.797Z,58.87
2022-11-30T14:05:41.871Z,59.27
2022-11-30T14:08:34.927Z,60.01
2022-11-30T14:11:42.856Z,59.95
2022-11-30T14:14:47.801Z,59.57
2022-11-30T14:17:36.718Z,59.14
2022-11-30T14:20:27.873Z,59.50
2022-11-30T14:23:20.107Z,60.05
2022-11-30T14:26:11.384Z,60.15
2022-11-30T14:29:04.343Z,59.91
2022-11-30T14:31:58.444Z,60.16
2022-11-30T14:34:49.428Z,60.19
2022-11-30T14:37:42.871Z,60.11
2022-11-30T14:40:33.784Z,60.33
2022-11-30T14:43:21.316Z,60.25
2022-11-30T14:46:14.530Z,60.27
2022-11-30T14:49:13.720Z,60.33
2022-11-30T14:52:04.998Z,60.36
2022-11-30T14:54:57.423Z,60.40
2022-11-30T14:57:50.322Z,60.45
2022-11-30T15:00:40.638Z,60.42
2022-11-30T15:03:29.670Z,60.55
2022-11-30T15:06:19.444Z,60.44
2022-11-30T15:09:16.388Z,60.66
2022-11-30T15:12:03.524Z,60.62
2022-11-30T15:15:18.976Z,60.63
2022-11-30T15:18:15.134Z,60.16
2022-11-30T15:21:07.577Z,60.30
2022-11-30T15:23:58.193Z,60.36
2022-11-30T15:26:53.754Z,60.33
2022-11-30T15:29:47.566Z,60.17
2022-11-30T15:32:35.010Z,60.22
2022-11-30T15:35:24.501Z,60.14
2022-11-30T15:38:11.429Z,60.10
2022-11-30T15:41:04.919Z,59.98
2022-11-30T15:43:53.825Z,59.99
2022-11-30T15:46:46.617Z,59.99
2022-11-30T15:49:36.245Z,59.76
2022-11-30T15:52:27.504Z,59.89
2022-11-30T15:55:40.708Z,59.92
2022-11-30T15:58:32.196Z,59.89
2022-11-30T16:01:25.915Z,59.98
2022-11-30T16:04:13.082Z,59.99
2022-11-30T16:06:59.779Z,60.06
2022-11-30T16:09:47.050Z,60.24
2022-11-30T16:12:34.685Z,60.41
2022-11-30T16:15:25.677Z,60.39
2022-11-30T16:18:16.257Z,60.40
2022-11-30T16:21:03.786Z,60.58
2022-11-30T16:23:50.719Z,60.67
2022-11-30T16:26:53.361Z,60.71
2022-11-30T16:29:40.366Z,60.74
2022-11-30T16:32:28.580Z,60.65
2022-11-30T16:35:19.365Z,60.56
2022-11-30T16:38:06.764Z,60.54
2022-11-30T16:40:55.658Z,60.68
2022-11-30T16:43:42.942Z,60.48
2022-11-30T16:46:31.335Z,60.26
2022-11-30T16:49:20.108Z,60.41
2022-11-30T16:52:06.985Z,60.66
2022-11-30T16:54:54.287Z,60.61
2022-11-30T16:57:41.116Z,60.91
2022-11-30T17:00:28.869Z,61.30
2022-11-30T17:03:21.351Z,61.31
2022-11-30T17:06:15.073Z,61.44
2022-11-30T17:09:01.935Z,61.81
2022-11-30T17:11:51.151Z,62.43
2022-11-30T17:14:37.765Z,62.01
2022-11-30T17:17:24.953Z,62.02
2022-11-30T17:20:13.020Z,62.18
2022-11-30T17:23:01.352Z,62.31
2022-11-30T17:25:49.292Z,62.25
2022-11-30T17:28:36.403Z,62.25
2022-11-30T17:31:23.337Z,62.29
2022-11-30T17:34:10.787Z,62.25
2022-11-30T17:36:57.841Z,62.18
2022-11-30T17:39:46.523Z,62.34
2022-11-30T17:42:33.178Z,62.45
2022-11-30T17:45:20.465Z,62.51
2022-11-30T17:48:07.311Z,62.66
2022-11-30T17:50:54.176Z,62.69
2022-11-30T17:53:41.494Z,62.66
2022-11-30T17:56:29.728Z,62.99
2022-11-30T17:59:16.260Z,63.09
2022-11-30T18:02:03.622Z,63.12
2022-11-30T18:04:52.599Z,63.79
2022-11-30T18:07:39.367Z,63.77
2022-11-30T18:10:26.500Z,64.63
2022-11-30T18:13:15.124Z,64.73
2022-11-30T18:16:08.661Z,65.55
2022-11-30T18:18:57.500Z,66.66
2022-11-30T18:21:45.217Z,66.30
2022-11-30T18:24:32.125Z,66.38
2022-11-30T18:27:18.996Z,66.72
2022-11-30T18:30:10.404Z,66.47
2022-11-30T18:32:57.966Z,66.18
2022-11-30T18:35:44.773Z,66.82
2022-11-30T18:38:35.861Z,67.04
2022-11-30T18:41:26.464Z,66.69
2022-11-30T18:44:13.908Z,66.57
2022-11-30T18:47:05.640Z,66.65
2022-11-30T18:49:52.952Z,66.62
2022-11-30T18:52:40.672Z,67.33
2022-11-30T18:55:28.250Z,67.42
2022-11-30T18:58:16.150Z,67.10
2022-11-30T19:01:18.774Z,67.12
2022-11-30T19:04:11.706Z,67.46
2022-11-30T19:07:12.838Z,67.52
2022-11-30T19:10:00.369Z,67.51
2022-11-30T19:12:51.021Z,67.20
2022-11-30T19:15:39.788Z,67.05
2022-11-30T19:18:34.807Z,67.31
2022-11-30T19:21:24.236Z,67.53
2022-11-30T19:24:10.947Z,67.55
2022-11-30T19:26:57.771Z,67.65
2022-11-30T19:29:44.984Z,67.32
2022-11-30T19:32:31.781Z,68.01
2022-11-30T19:35:19.064Z,68.23
2022-11-30T19:38:07.152Z,68.37
2022-11-30T19:40:54.518Z,68.54
2022-11-30T19:43:41.694Z,68.12
2022-11-30T19:46:29.338Z,68.34
2022-11-30T19:49:16.074Z,67.85
2022-11-30T19:52:03.279Z,67.83
2022-11-30T19:54:51.442Z,67.60
2022-11-30T19:57:38.346Z,67.43
2022-11-30T20:00:25.247Z,67.88
2022-11-30T20:03:12.236Z,67.75
2022-11-30T20:05:58.929Z,67.69
2022-11-30T20:08:46.928Z,67.62
2022-11-30T20:11:35.714Z,67.60
2022-11-30T20:14:23.038Z,67.68
2022-11-30T20:17:10.007Z,66.77
2022-11-30T20:19:57.346Z,66.58
2022-11-30T20:22:44.255Z,66.04
2022-11-30T20:25:32.289Z,66.11
2022-11-30T20:28:20.568Z,65.84
2022-11-30T20:31:09.089Z,65.89
2022-11-30T20:33:56.193Z,65.76
2022-11-30T20:36:43.759Z,65.83
2022-11-30T20:39:30.603Z,65.44
2022-11-30T20:42:17.528Z,65.28
2022-11-30T20:45:06.565Z,65.21
2022-11-30T20:47:53.950Z,65.05
2022-11-30T20:50:40.907Z,65.11
2022-11-30T20:53:27.791Z,65.09
2022-11-30T20:56:15.134Z,64.92
2022-11-30T20:59:03.451Z,65.31
2022-11-30T21:01:51.557Z,65.49
2022-11-30T21:04:38.729Z,65.41
2022-11-30T21:07:25.687Z,65.32
2022-11-30T21:10:13.659Z,65.27
2022-11-30T21:13:00.355Z,65.48
2022-11-30T21:15:47.791Z,65.25
2022-11-30T21:18:36.238Z,65.44
2022-11-30T21:21:24.996Z,65.89
2022-11-30T21:24:12.794Z,65.37
2022-11-30T21:27:00.104Z,65.79
2022-11-30T21:29:47.014Z,65.53
2022-11-30T21:32:34.210Z,65.83
2022-11-30T21:35:22.784Z,65.71
2022-11-30T21:38:10.272Z,65.76
2022-11-30T21:40:58.205Z,66.82
2022-11-30T21:43:45.568Z,66.91
2022-11-30T21:46:32.665Z,66.38
2022-11-30T21:49:19.871Z,66.00
2022-11-30T21:52:07.778Z,66.01
2022-11-30T21:54:55.202Z,66.29
2022-11-30T21:57:42.193Z,66.82
2022-11-30T22:00:29.157Z,66.56
2022-11-30T22:03:19.430Z,66.89
2022-11-30T22:06:08.999Z,66.37
2022-11-30T22:09:03.380Z,66.21
2022-11-30T22:11:50.175Z,65.91
2022-11-30T22:14:37.358Z,66.39
2022-11-30T22:17:26.327Z,66.02
2022-11-30T22:20:14.043Z,65.66
2022-11-30T22:23:00.726Z,65.73
2022-11-30T22:25:54.080Z,65.68
2022-11-30T22:28:42.435Z,65.85
2022-11-30T22:31:33.547Z,65.74
2022-11-30T22:34:20.765Z,65.14
2022-11-30T22:37:07.989Z,65.46
2022-11-30T22:39:54.879Z,65.69
2022-11-30T22:42:43.703Z,65.44
2022-11-30T22:45:30.715Z,65.16
2022-11-30T22:48:17.967Z,65.15
2022-11-30T22:51:06.685Z,65.05
2022-11-30T22:53:54.539Z,64.91
2022-11-30T22:56:42.221Z,64.66
2022-11-30T22:59:30.773Z,64.77
2022-11-30T23:02:17.704Z,64.81
2022-11-30T23:05:05.154Z,64.83
2022-11-30T23:07:51.960Z,64.78
2022-11-30T23:10:39.474Z,64.70
2022-11-30T23:13:26.494Z,64.52
2022-11-30T23:16:16.062Z,64.47
2022-11-30T23:19:02.904Z,64.71
2022-11-30T23:21:50.264Z,64.84
2022-11-30T23:24:39.196Z,65.17
2022-11-30T23:27:26.610Z,65.04
2022-11-30T23:30:17.447Z,64.89
2022-11-30T23:33:09.125Z,65.28
2022-11-30T23:35:57.901Z,65.53
2022-11-30T23:38:45.003Z,65.52
2022-11-30T23:41:31.968Z,65.89
2022-11-30T23:44:19.500Z,66.15
2022-11-30T23:47:06.347Z,66.27
2022-11-30T23:49:54.846Z,66.29
2022-11-30T23:52:41.742Z,66.65
2022-11-30T23:55:29.388Z,66.73
2022-11-30T23:58:16.995Z,66.70
